Time;durP1;ratioP1;P1;durP2;ratioP2;P2;SDS_P1;SDS_P2;PMS_P1;PMS_P2;Temp;Humidity;BMP_temperature;BMP_pressure;BME280_temperature;BME280_humidity;BME280_pressure;Samples;Min_cycle;Max_cycle;Signal;HPM_P1;HPM_P2
2021/03/29 00:01:33;;;;;;;4.47;1.33;;;;;;;6.48;48.30;101443.78;4321864;33;35936;-82
2021/03/29 00:04:00;;;;;;;3.90;1.12;;;;;;;6.65;47.78;101446.41;4326944;33;33024;-82
2021/03/29 00:06:28;;;;;;;0.60;0.60;;;;;;;6.53;48.16;101443.53;4330273;32;34038;-82
2021/03/29 00:08:56;;;;;;;3.20;1.48;;;;;;;6.47;48.12;101447.34;4323128;33;36893;-82
2021/03/29 00:11:23;;;;;;;1.85;0.60;;;;;;;6.25;49.46;101448.50;4323653;33;33988;-82
2021/03/29 00:13:52;;;;;;;0.70;0.37;;;;;;;6.25;49.37;101446.72;4310814;33;33730;-82
2021/03/29 00:16:20;;;;;;;6.80;0.90;;;;;;;6.43;48.70;101444.94;4311237;33;33332;-82
2021/03/29 00:18:48;;;;;;;0.52;0.52;;;;;;;6.49;48.59;101448.13;4323291;33;35480;-81
2021/03/29 00:21:16;;;;;;;;;;;;;;;6.52;48.53;101449.75;4314785;33;34548;-82
2021/03/29 00:23:43;;;;;;;0.10;0.10;;;;;;;6.43;48.85;101452.88;4310763;33;32525;-82
2021/03/29 00:26:11;;;;;;;0.47;0.47;;;;;;;6.36;49.08;101447.00;4310770;33;33738;-82
2021/03/29 00:28:38;;;;;;;0.50;0.37;;;;;;;6.46;48.72;101452.69;4310798;33;34304;-82
2021/03/29 00:31:08;;;;;;;7.73;0.73;;;;;;;6.41;48.91;101457.34;4322799;33;35604;-81
2021/03/29 00:33:36;;;;;;;1.75;0.88;;;;;;;6.47;48.52;101450.00;4320831;33;33159;-82
2021/03/29 00:36:05;;;;;;;0.25;0.25;;;;;;;6.46;48.82;101450.94;4323429;33;33578;-82
2021/03/29 00:38:32;;;;;;;;;;;;;;;6.43;48.84;101453.72;4324177;33;35859;-81
2021/03/29 00:41:05;;;;;;;0.13;0.13;;;;;;;6.43;49.11;101453.72;4323691;33;34415;-82
2021/03/29 00:43:34;;;;;;;2.28;1.25;;;;;;;6.21;50.05;101452.22;4322814;33;33975;-81
2021/03/29 00:46:03;;;;;;;2.15;1.25;;;;;;;6.38;49.30;101450.47;4310706;33;34409;-82
2021/03/29 00:48:32;;;;;;;2.47;0.85;;;;;;;6.28;49.80;101457.16;4299032;33;35603;-81
2021/03/29 00:51:39;;;;;;;1.55;1.08;;;;;;;6.47;49.49;101457.94;4311431;33;34158;-82
2021/03/29 00:54:08;;;;;;;0.85;0.85;;;;;;;6.22;50.00;101449.50;4286359;33;32896;-82
2021/03/29 00:56:35;;;;;;;;;;;;;;;6.33;49.93;101456.91;4266280;33;33679;-81
2021/03/29 00:59:03;;;;;;;0.50;0.50;;;;;;;6.21;50.50;101457.50;4280240;33;34803;-81
2021/03/29 01:01:44;;;;;;;0.37;0.37;;;;;;;5.91;51.79;101459.03;4269064;33;34986;-82
2021/03/29 01:04:12;;;;;;;4.00;0.80;;;;;;;6.12;50.95;101465.91;4284751;33;33118;-82
2021/03/29 01:06:44;;;;;;;0.73;0.55;;;;;;;6.08;51.30;101462.53;4271801;33;34588;-81
2021/03/29 01:09:17;;;;;;;0.43;0.43;;;;;;;6.19;50.87;101459.38;4277621;33;36144;-82
2021/03/29 01:11:50;;;;;;;3.00;1.35;;;;;;;6.04;51.09;101462.78;4270222;33;34805;-81
2021/03/29 01:14:39;;;;;;;0.65;0.65;;;;;;;6.11;50.88;101454.50;4267592;33;32961;-82
2021/03/29 01:17:13;;;;;;;0.30;0.30;;;;;;;6.22;50.73;101462.72;4277175;33;33251;-82
2021/03/29 01:19:59;;;;;;;0.93;0.93;;;;;;;6.23;50.67;101469.72;4278454;33;34768;-81
2021/03/29 01:22:33;;;;;;;1.08;0.57;;;;;;;6.27;50.68;101475.72;4265843;33;35329;-82
2021/03/29 01:25:15;;;;;;;3.42;1.30;;;;;;;6.09;51.34;101474.84;4299869;33;32490;-82
2021/03/29 01:27:53;;;;;;;0.52;0.40;;;;;;;6.22;51.00;101469.78;4323228;33;34684;-81
2021/03/29 01:30:21;;;;;;;3.45;1.12;;;;;;;6.19;51.28;101457.59;4298409;33;35575;-82
2021/03/29 01:32:50;;;;;;;3.15;1.15;;;;;;;5.90;52.52;101460.84;4322935;33;34264;-82
2021/03/29 01:35:25;;;;;;;5.47;0.82;;;;;;;5.99;52.15;101467.44;4314192;33;32721;-82
2021/03/29 01:37:53;;;;;;;1.05;0.93;;;;;;;6.08;52.08;101462.53;4323073;33;33652;-82
2021/03/29 01:40:21;;;;;;;0.57;0.57;;;;;;;6.10;52.08;101463.34;4310778;33;35934;-82
2021/03/29 01:42:49;;;;;;;0.35;0.35;;;;;;;6.19;51.59;101460.25;4310360;33;34750;-81
2021/03/29 01:45:17;;;;;;;0.80;0.80;;;;;;;6.21;51.12;101455.75;4321598;33;33188;-81
2021/03/29 01:47:45;;;;;;;0.32;0.32;;;;;;;6.25;50.79;101459.91;4309716;33;33766;-81
2021/03/29 01:50:16;;;;;;;0.60;0.50;;;;;;;6.28;51.19;101454.50;4302059;33;35532;-81
2021/03/29 01:52:44;;;;;;;0.43;0.37;;;;;;;6.26;52.16;101450.22;4310985;33;35004;-81
2021/03/29 01:55:12;;;;;;;0.37;0.37;;;;;;;5.88;53.38;101456.56;4322078;33;33437;-81
2021/03/29 01:57:39;;;;;;;1.35;0.80;;;;;;;6.04;52.77;101455.72;4322433;33;33058;-82
2021/03/29 02:00:14;;;;;;;0.65;0.65;;;;;;;6.14;51.74;101448.22;4321934;33;33910;-81
2021/03/29 02:02:42;;;;;;;0.15;0.15;;;;;;;6.28;51.01;101454.50;4323747;33;34337;-82
2021/03/29 02:05:14;;;;;;;0.55;0.55;;;;;;;6.24;50.72;101442.34;4322180;33;32288;-81
2021/03/29 02:07:43;;;;;;;1.05;1.02;;;;;;;6.32;50.48;101444.59;4322640;33;34423;-82
2021/03/29 02:10:17;;;;;;;1.23;0.65;;;;;;;6.30;50.32;101443.84;4322357;33;34639;-82
2021/03/29 02:12:46;;;;;;;2.75;1.08;;;;;;;6.28;50.25;101430.72;4298893;33;35397;-81
2021/03/29 02:15:15;;;;;;;;;;;;;;;6.26;50.06;101442.28;4310667;33;31264;-81
2021/03/29 02:17:43;;;;;;;0.85;0.85;;;;;;;6.25;50.23;101443.22;4315197;33;33204;-81
2021/03/29 02:20:16;;;;;;;0.65;0.65;;;;;;;6.23;50.23;101440.66;4322143;33;34888;-81
2021/03/29 02:22:48;;;;;;;0.73;0.68;;;;;;;6.22;50.31;101438.94;4322029;33;35387;-81
2021/03/29 02:25:24;;;;;;;0.95;0.93;;;;;;;6.21;50.42;101446.94;4310197;33;34225;-81
2021/03/29 02:27:52;;;;;;;2.60;0.68;;;;;;;6.16;50.71;101444.53;4323132;33;33471;-82
2021/03/29 02:30:22;;;;;;;2.28;1.85;;;;;;;5.83;52.22;101448.84;4315472;33;35633;-82
2021/03/29 02:32:49;;;;;;;1.98;0.57;;;;;;;5.97;52.00;101442.91;4312178;33;35532;-81
2021/03/29 02:35:19;;;;;;;0.30;0.30;;;;;;;5.99;51.86;101441.03;4323690;33;32943;-82
2021/03/29 02:37:48;;;;;;;11.50;0.90;;;;;;;5.91;52.01;101451.97;4317358;33;33599;-82
2021/03/29 02:40:17;;;;;;;18.08;0.77;;;;;;;5.95;51.87;101450.87;4329842;33;34773;-82
2021/03/29 02:42:53;;;;;;;1.27;1.17;;;;;;;5.84;52.07;101447.03;4323488;33;34819;-81
2021/03/29 02:45:24;;;;;;;1.77;0.80;;;;;;;5.59;53.31;101446.50;4323644;33;33289;-82
2021/03/29 02:47:53;;;;;;;6.12;1.48;;;;;;;5.66;53.14;101442.63;4311710;33;34968;-82
2021/03/29 02:50:24;;;;;;;0.80;0.70;;;;;;;5.63;53.16;101442.78;4311614;33;35474;-81
2021/03/29 02:52:57;;;;;;;0.13;0.10;;;;;;;5.81;52.74;101444.56;4324318;33;33666;-81
2021/03/29 02:55:26;;;;;;;0.52;0.47;;;;;;;5.93;52.40;101446.59;4323101;33;32579;-81
2021/03/29 02:57:57;;;;;;;0.98;0.93;;;;;;;5.92;52.42;101447.53;4311116;33;34706;-81
2021/03/29 03:00:25;;;;;;;0.00;0.00;;;;;;;5.82;52.89;101448.91;4323810;33;34162;-81
2021/03/29 03:02:58;;;;;;;3.37;0.40;;;;;;;5.84;53.08;101444.41;4315365;33;35029;-82
2021/03/29 03:05:29;;;;;;;0.62;0.62;;;;;;;5.73;53.56;101446.69;4323171;33;32982;-81
2021/03/29 03:07:57;;;;;;;2.03;1.12;;;;;;;5.69;53.73;101445.97;4322981;33;33250;-81
2021/03/29 03:10:27;;;;;;;0.22;0.22;;;;;;;5.65;54.42;101447.06;4313957;33;35449;-81
2021/03/29 03:12:55;;;;;;;2.85;1.42;;;;;;;5.45;55.29;101446.28;4323473;33;34530;-81
2021/03/29 03:15:25;;;;;;;2.35;1.98;;;;;;;5.82;54.01;101441.88;4322584;33;33117;-81
2021/03/29 03:17:54;;;;;;;1.12;0.88;;;;;;;5.79;53.99;101449.91;4324793;33;35659;-82
2021/03/29 03:20:22;;;;;;;0.25;0.25;;;;;;;5.71;54.66;101448.56;4323005;33;35751;-82
2021/03/29 03:22:54;;;;;;;5.20;0.60;;;;;;;5.68;54.91;101446.06;4323241;33;33909;-82
2021/03/29 03:25:36;;;;;;;0.28;0.13;;;;;;;5.80;54.85;101446.34;4312334;33;33022;-81
2021/03/29 03:28:05;;;;;;;0.37;0.35;;;;;;;5.87;54.87;101439.00;4317745;33;35370;-81
2021/03/29 03:30:41;;;;;;;0.85;0.70;;;;;;;6.04;54.16;101439.88;4322765;33;35092;-81
2021/03/29 03:33:10;;;;;;;0.57;0.57;;;;;;;6.11;53.81;101436.00;4310875;33;33829;-81
2021/03/29 03:35:40;;;;;;;0.08;0.08;;;;;;;5.86;54.61;101451.34;4310342;33;33725;-81
2021/03/29 03:38:16;;;;;;;0.22;0.20;;;;;;;5.99;54.25;101439.25;4299232;33;34958;-81
2021/03/29 03:40:47;;;;;;;4.05;0.73;;;;;;;5.87;54.86;101436.34;4333895;32;36382;-81
2021/03/29 03:43:17;;;;;;;2.08;1.23;;;;;;;6.04;54.13;101426.66;4298726;33;35845;-81
2021/03/29 03:45:48;;;;;;;2.80;1.87;;;;;;;6.00;54.27;101425.12;4322686;33;32819;-81
2021/03/29 03:48:17;;;;;;;1.42;1.12;;;;;;;6.00;54.21;101425.12;4323298;33;34827;-82
2021/03/29 03:50:48;;;;;;;1.08;0.80;;;;;;;6.14;53.79;101425.25;4323243;33;34293;-81
2021/03/29 03:53:18;;;;;;;0.70;0.70;;;;;;;5.96;54.66;101426.19;4323229;33;33873;-82
2021/03/29 03:55:58;;;;;;;0.20;0.20;;;;;;;6.19;54.15;101419.75;4323025;33;33318;-82
2021/03/29 03:58:26;;;;;;;1.87;0.75;;;;;;;5.87;55.19;101425.78;4311169;33;33384;-81
2021/03/29 04:00:56;;;;;;;1.15;1.05;;;;;;;6.15;54.30;101420.84;4324032;33;36491;-81
2021/03/29 04:03:25;;;;;;;2.95;1.48;;;;;;;5.93;55.06;101431.62;4315077;33;34144;-81
2021/03/29 04:05:53;;;;;;;1.67;1.40;;;;;;;6.07;54.40;101421.22;4310287;33;34378;-81
2021/03/29 04:08:42;;;;;;;3.75;2.30;;;;;;;6.37;53.53;101421.44;4314804;33;34932;-81
2021/03/29 04:11:09;;;;;;;1.45;1.25;;;;;;;6.28;54.04;101417.50;4309946;33;36682;-81
2021/03/29 04:13:36;;;;;;;3.03;1.15;;;;;;;6.18;54.56;101426.84;4326337;33;33618;-81
2021/03/29 04:16:06;;;;;;;2.42;2.17;;;;;;;6.25;54.43;101433.50;4328190;33;32192;-81
2021/03/29 04:18:34;;;;;;;5.10;3.50;;;;;;;6.43;54.02;101427.28;4322651;33;35120;-81
2021/03/29 04:21:01;;;;;;;3.20;2.58;;;;;;;6.23;54.70;101434.53;4310819;33;35763;-81
2021/03/29 04:23:46;;;;;;;1.48;1.40;;;;;;;6.43;53.64;101429.91;4305987;33;36171;-81
2021/03/29 04:26:13;;;;;;;0.30;0.30;;;;;;;6.36;53.52;101435.59;4325785;33;33404;-81
2021/03/29 04:28:41;;;;;;;5.97;1.67;;;;;;;6.44;53.29;101436.06;4316391;33;34341;-81
2021/03/29 04:31:08;;;;;;;0.93;0.93;;;;;;;6.52;52.94;101440.03;4310637;33;34795;-81
2021/03/29 04:33:35;;;;;;;2.20;1.60;;;;;;;6.57;52.82;101437.13;4322610;33;35726;-81
2021/03/29 04:36:03;;;;;;;2.60;1.65;;;;;;;6.71;52.43;101434.66;4313681;33;33644;-81
2021/03/29 04:38:30;;;;;;;1.90;1.77;;;;;;;6.74;52.44;101437.13;4322441;33;33164;-81
2021/03/29 04:40:57;;;;;;;3.73;2.37;;;;;;;6.87;51.97;101438.16;4315845;33;35067;-81
2021/03/29 04:43:28;;;;;;;1.73;1.62;;;;;;;6.94;51.96;101440.44;4321812;33;34332;-81
2021/03/29 04:45:56;;;;;;;1.15;1.05;;;;;;;6.69;52.75;101442.66;4322394;33;33213;-81
2021/03/29 04:48:23;;;;;;;1.33;1.03;;;;;;;6.62;53.57;101451.00;4322473;33;33702;-81
2021/03/29 04:50:50;;;;;;;1.90;1.80;;;;;;;6.81;52.83;101449.09;4323781;33;35416;-81
2021/03/29 04:53:17;;;;;;;1.30;1.20;;;;;;;6.91;52.38;101450.31;4322160;33;34102;-81
2021/03/29 04:55:45;;;;;;;1.33;1.20;;;;;;;6.85;52.41;101445.34;4310586;33;34584;-81
2021/03/29 04:58:14;;;;;;;2.03;1.70;;;;;;;7.07;52.29;101459.16;4313821;33;33753;-81
2021/03/29 05:00:41;;;;;;;2.33;0.90;;;;;;;7.06;52.11;101455.62;4299410;33;35544;-81
2021/03/29 05:03:08;;;;;;;3.20;0.97;;;;;;;7.14;52.04;101445.50;4323671;33;33756;-81
2021/03/29 05:05:35;;;;;;;3.92;2.17;;;;;;;7.11;52.29;101456.25;4322908;33;33156;-81
2021/03/29 05:08:21;;;;;;;1.52;1.42;;;;;;;7.16;52.37;101462.16;4323767;33;35060;-80
2021/03/29 05:10:49;;;;;;;1.87;1.02;;;;;;;7.22;52.36;101459.19;4323532;33;35263;-81
2021/03/29 05:13:16;;;;;;;1.25;0.62;;;;;;;7.31;52.11;101465.75;4321973;33;35000;-81
2021/03/29 05:15:44;;;;;;;3.58;1.15;;;;;;;7.47;51.83;101466.63;4322676;33;32944;-81
2021/03/29 05:18:12;;;;;;;0.80;0.80;;;;;;;7.56;51.61;101469.59;4310500;33;35270;-82
2021/03/29 05:20:40;;;;;;;5.37;2.33;;;;;;;7.59;51.54;101480.06;4322952;33;35303;-81
2021/03/29 05:23:07;;;;;;;1.00;0.90;;;;;;;7.67;51.26;101482.28;4325682;33;35687;-81
2021/03/29 05:25:34;;;;;;;2.53;1.65;;;;;;;7.71;51.01;101476.72;4310189;33;33674;-81
2021/03/29 05:28:03;;;;;;;0.55;0.55;;;;;;;7.74;51.02;101484.47;4322962;33;33715;-81
2021/03/29 05:30:30;;;;;;;1.12;0.88;;;;;;;7.85;50.82;101487.37;4328595;33;33686;-81
2021/03/29 05:32:57;;;;;;;1.98;1.87;;;;;;;7.85;51.04;101486.53;4322416;33;35295;-81
2021/03/29 05:35:24;;;;;;;0.93;0.40;;;;;;;7.97;50.94;101493.78;4313235;33;33964;-81
2021/03/29 05:37:51;;;;;;;1.17;1.07;;;;;;;7.98;51.39;101490.19;4323202;33;32996;-81
2021/03/29 05:40:19;;;;;;;1.98;1.87;;;;;;;7.96;52.07;101494.72;4321401;33;34850;-81
2021/03/29 05:42:47;;;;;;;1.27;1.17;;;;;;;7.93;52.29;101493.09;4302897;33;35065;-81
2021/03/29 05:45:15;;;;;;;8.07;4.62;;;;;;;8.29;51.46;101495.50;4321087;33;33290;-81
2021/03/29 05:47:42;;;;;;;1.87;0.95;;;;;;;8.33;51.64;101500.53;4321732;33;34698;-80
2021/03/29 05:50:14;;;;;;;1.33;1.10;;;;;;;8.43;51.84;101509.66;4330367;33;35928;-81
2021/03/29 05:52:42;;;;;;;2.78;2.58;;;;;;;8.59;52.54;101503.38;4322214;33;33599;-81
2021/03/29 05:55:14;;;;;;;2.42;1.10;;;;;;;8.50;52.30;101493.28;4322220;33;32578;-81
2021/03/29 05:58:05;;;;;;;1.87;1.65;;;;;;;8.76;52.24;101497.03;4310398;33;33921;-81
2021/03/29 06:00:36;;;;;;;1.17;1.08;;;;;;;9.05;50.95;101497.00;4322999;33;35436;-81
2021/03/29 06:03:29;;;;;;;7.80;2.53;;;;;;;9.13;50.94;101489.44;4334163;32;32645;-81
2021/03/29 06:06:19;;;;;;;3.35;1.77;;;;;;;9.39;50.01;101496.62;4311159;33;33622;-81
2021/03/29 06:08:49;;;;;;;2.72;1.62;;;;;;;9.66;49.52;101483.41;4320317;33;33113;-81
2021/03/29 06:11:38;;;;;;;0.98;0.68;;;;;;;9.90;49.30;101492.47;4320247;33;34564;-82
2021/03/29 06:14:22;;;;;;;0.88;0.88;;;;;;;10.13;48.98;101490.06;4320741;33;34599;-82
2021/03/29 06:17:00;;;;;;;3.67;2.35;;;;;;;10.21;48.24;101487.72;4322771;33;32887;-81
2021/03/29 06:19:49;;;;;;;0.95;0.65;;;;;;;10.33;47.67;101486.94;4320459;33;33349;-82
2021/03/29 06:22:21;;;;;;;1.02;0.93;;;;;;;10.74;46.74;101484.16;4321672;33;36387;-81
2021/03/29 06:24:56;;;;;;;3.87;1.27;;;;;;;10.66;47.23;101481.16;4321182;33;34860;-82
2021/03/29 06:27:46;;;;;;;0.60;0.60;;;;;;;10.73;47.56;101485.94;4325501;33;33160;-82
2021/03/29 06:30:34;;;;;;;0.95;0.88;;;;;;;10.96;47.30;101479.06;4322840;33;34425;-82
2021/03/29 06:33:14;;;;;;;0.98;0.93;;;;;;;11.00;47.59;101492.03;4303613;33;33947;-82
2021/03/29 06:35:44;;;;;;;1.67;1.08;;;;;;;11.31;46.90;101494.25;4327423;33;34863;-81
2021/03/29 06:38:11;;;;;;;1.70;0.85;;;;;;;11.47;46.94;101493.06;4325087;33;34159;-82
2021/03/29 06:40:45;;;;;;;1.25;0.57;;;;;;;11.55;45.79;101493.38;4309755;33;34278;-82
2021/03/29 06:43:25;;;;;;;1.77;1.50;;;;;;;12.07;44.78;101493.16;4313840;33;34519;-81
2021/03/29 06:45:58;;;;;;;2.40;1.95;;;;;;;11.74;45.09;101492.97;4320907;33;34713;-82
2021/03/29 06:48:34;;;;;;;2.15;1.02;;;;;;;12.21;45.63;101493.00;4308945;33;32980;-82
2021/03/29 06:51:23;;;;;;;4.95;0.88;;;;;;;12.48;43.65;101491.78;4321105;33;33200;-82
2021/03/29 06:54:06;;;;;;;0.68;0.68;;;;;;;12.72;43.96;101492.59;4319937;33;34909;-82
2021/03/29 06:56:38;;;;;;;2.05;1.02;;;;;;;12.78;43.69;101496.62;4320289;33;34216;-82
2021/03/29 06:59:15;;;;;;;0.85;0.73;;;;;;;13.13;42.37;101503.63;4321425;33;33602;-81
2021/03/29 07:01:55;;;;;;;4.78;1.58;;;;;;;13.14;42.33;101502.66;4307862;33;33420;-81
2021/03/29 07:04:25;;;;;;;0.85;0.77;;;;;;;13.17;42.96;101499.78;4321842;33;34437;-81
2021/03/29 07:06:53;;;;;;;1.08;0.93;;;;;;;13.34;43.87;101491.28;4314117;33;34295;-82
2021/03/29 07:09:21;;;;;;;1.30;0.60;;;;;;;13.58;40.99;101488.50;4318919;33;32868;-82
2021/03/29 07:11:49;;;;;;;1.70;0.70;;;;;;;13.78;41.98;101491.25;4309255;33;34524;-81
2021/03/29 07:14:20;;;;;;;0.80;0.77;;;;;;;13.86;40.11;101490.66;4307223;33;34762;-82
2021/03/29 07:16:47;;;;;;;1.87;0.57;;;;;;;14.13;39.08;101485.72;4322828;33;34452;-81
2021/03/29 07:19:15;;;;;;;0.45;0.45;;;;;;;14.32;39.10;101478.75;4308234;33;33353;-82
2021/03/29 07:21:42;;;;;;;0.68;0.68;;;;;;;14.28;39.02;101489.84;4318483;33;34630;-82
2021/03/29 07:24:11;;;;;;;1.23;0.68;;;;;;;14.01;38.49;101482.22;4323322;33;34652;-81
2021/03/29 07:26:47;;;;;;;0.90;0.90;;;;;;;14.56;38.16;101484.75;4304860;33;34143;-82
2021/03/29 07:29:32;;;;;;;1.73;1.62;;;;;;;14.78;37.56;101489.97;4316690;33;33291;-82
2021/03/29 07:32:08;;;;;;;0.85;0.70;;;;;;;14.97;38.03;101476.69;4321188;33;34449;-83
2021/03/29 07:34:50;;;;;;;0.70;0.70;;;;;;;14.99;37.08;101478.28;4318441;33;37728;-82
2021/03/29 07:37:44;;;;;;;0.45;0.45;;;;;;;14.95;36.93;101476.81;4320645;33;35249;-82
2021/03/29 07:40:23;;;;;;;0.43;0.43;;;;;;;14.81;37.63;101489.69;4318476;33;32504;-81
2021/03/29 07:43:10;;;;;;;1.55;1.10;;;;;;;14.98;36.58;101479.25;4321978;33;33976;-82
2021/03/29 07:46:05;;;;;;;1.67;0.80;;;;;;;14.89;37.27;101495.25;4323436;33;35407;-83
2021/03/29 07:48:41;;;;;;;1.67;1.40;;;;;;;14.64;37.76;101498.34;4299131;33;33193;-82
2021/03/29 07:51:16;;;;;;;3.20;1.12;;;;;;;14.42;36.99;101489.56;4311455;33;34422;-82
2021/03/29 07:53:52;;;;;;;1.00;0.95;;;;;;;14.79;37.99;101486.31;4302369;33;32461;-83
2021/03/29 07:56:30;;;;;;;11.00;1.08;;;;;;;14.64;37.39;101491.13;4324387;33;35424;-82
2021/03/29 07:59:15;;;;;;;7.65;0.80;;;;;;;15.09;36.49;101489.03;4323822;33;34949;-82
2021/03/29 08:02:04;;;;;;;0.55;0.55;;;;;;;15.00;36.29;101506.78;4305994;33;32881;-81
2021/03/29 08:05:04;;;;;;;5.70;1.75;;;;;;;15.05;36.19;101503.69;4323308;33;33856;-82
2021/03/29 08:07:42;;;;;;;1.05;0.75;;;;;;;14.88;36.46;101496.25;4308345;33;34575;-82
2021/03/29 08:10:16;;;;;;;0.60;0.45;;;;;;;14.95;35.96;101505.47;4323423;33;34594;-81
2021/03/29 08:13:01;;;;;;;1.30;0.82;;;;;;;14.95;37.34;101500.12;4323007;33;32996;-81
2021/03/29 08:16:03;;;;;;;0.60;0.60;;;;;;;15.29;37.62;101501.59;4323776;33;33308;-81
2021/03/29 08:19:09;;;;;;;1.08;0.82;;;;;;;15.78;35.51;101509.75;4321909;33;34318;-81
2021/03/29 08:22:06;;;;;;;1.20;0.77;;;;;;;15.68;35.95;101500.81;4305893;33;33933;-82
2021/03/29 08:25:01;;;;;;;0.75;0.75;;;;;;;15.67;35.85;101508.00;4308873;33;31984;-81
2021/03/29 08:27:32;;;;;;;0.93;0.75;;;;;;;15.64;35.85;101510.09;4321227;33;34292;-81
2021/03/29 08:30:10;;;;;;;1.27;0.93;;;;;;;16.02;35.05;101508.41;4309024;33;34974;-81
2021/03/29 08:32:38;;;;;;;0.55;0.55;;;;;;;16.15;36.14;101508.16;4322447;33;35195;-81
2021/03/29 08:35:09;;;;;;;2.92;0.98;;;;;;;16.30;34.61;101512.13;4314609;33;32797;-79
2021/03/29 08:37:43;;;;;;;1.55;0.52;;;;;;;16.34;34.92;101511.69;4302484;33;34539;-82
2021/03/29 08:40:27;;;;;;;5.15;0.65;;;;;;;16.37;35.22;101513.28;4296389;33;35256;-80
2021/03/29 08:43:02;;;;;;;0.60;0.47;;;;;;;16.19;35.26;101513.09;4288278;33;35071;-81
2021/03/29 08:45:30;;;;;;;0.88;0.52;;;;;;;16.52;36.95;101509.22;4308783;33;32863;-80
2021/03/29 08:47:59;;;;;;;;;;;;;;;16.77;34.22;101506.81;4297388;33;34289;-80
2021/03/29 08:50:36;;;;;;;1.35;0.75;;;;;;;17.22;33.87;101501.63;4323153;33;35952;-80
2021/03/29 08:53:05;;;;;;;0.73;0.65;;;;;;;17.10;33.03;101503.66;4294263;33;35829;-80
2021/03/29 08:55:38;;;;;;;3.30;0.73;;;;;;;17.02;33.70;101503.53;4305778;33;32482;-80
2021/03/29 08:58:07;;;;;;;1.20;1.12;;;;;;;17.31;33.05;101503.44;4296513;33;36016;-80
2021/03/29 09:00:55;;;;;;;1.33;1.08;;;;;;;17.60;33.31;101503.22;4311614;33;35348;-80
2021/03/29 09:03:23;;;;;;;2.75;1.55;;;;;;;17.71;33.54;101499.50;4306608;33;33720;-80
2021/03/29 09:05:50;;;;;;;2.85;1.87;;;;;;;17.27;33.18;101508.25;4310144;33;34013;-80
2021/03/29 09:08:21;;;;;;;1.90;1.27;;;;;;;17.75;33.64;101508.97;4295356;33;34000;-79
2021/03/29 09:10:50;;;;;;;6.65;3.08;;;;;;;17.85;32.76;101512.50;4320131;33;35524;-80
2021/03/29 09:17:05;;;;;;;1.37;0.93;;;;;;;17.90;31.30;101504.78;4302309;33;34350;-81
2021/03/29 09:21:12;;;;;;;1.40;0.88;;;;;;;18.03;33.08;101500.75;4307309;33;33702;-83
2021/03/29 09:28:41;;;;;;;1.80;1.42;;;;;;;17.93;31.69;101497.28;4271613;33;33364;-80
2021/03/29 09:31:59;;;;;;;0.62;0.30;;;;;;;18.28;31.44;101500.03;4275327;33;32433;-81
2021/03/29 09:39:38;;;;;;;5.40;1.50;;;;;;;18.31;31.12;101499.75;4220085;33;33484;-82
2021/03/29 09:42:45;;;;;;;0.73;0.60;;;;;;;18.23;32.49;101496.09;4204394;33;33966;-81
2021/03/29 09:46:05;;;;;;;1.87;0.82;;;;;;;18.70;30.97;101487.66;4244585;33;32410;-82
2021/03/29 09:49:17;;;;;;;1.37;0.70;;;;;;;18.45;33.16;101495.69;4241462;33;32222;-81
2021/03/29 09:52:14;;;;;;;0.85;0.40;;;;;;;18.12;32.99;101494.47;4229960;33;36538;-82
2021/03/29 09:55:05;;;;;;;0.47;0.47;;;;;;;18.59;29.85;101492.47;4258918;33;36323;-81
2021/03/29 09:57:36;;;;;;;;;;;;;;;18.81;30.01;101490.09;4265190;33;32881;-80
2021/03/29 10:00:20;;;;;;;1.05;0.73;;;;;;;18.67;30.22;101490.66;4278894;33;33674;-80
2021/03/29 10:02:47;;;;;;;1.20;1.10;;;;;;;18.51;29.99;101484.28;4291971;33;35387;-80
2021/03/29 10:05:17;;;;;;;1.23;0.73;;;;;;;18.75;29.98;101484.50;4285153;33;33901;-80
2021/03/29 10:07:50;;;;;;;1.85;1.20;;;;;;;19.14;30.33;101483.09;4326429;33;33584;-81
2021/03/29 10:10:29;;;;;;;1.20;0.73;;;;;;;19.38;30.05;101486.00;4321914;33;32814;-80
2021/03/29 10:13:07;;;;;;;1.80;1.10;;;;;;;19.08;30.21;101476.50;4319243;33;35254;-80
2021/03/29 10:15:35;;;;;;;0.75;0.75;;;;;;;19.14;30.08;101480.41;4311043;33;34539;-80
2021/03/29 10:18:11;;;;;;;2.00;1.35;;;;;;;19.29;31.54;101477.03;4323992;33;32956;-80
2021/03/29 10:21:07;;;;;;;1.65;0.50;;;;;;;19.41;30.11;101472.16;4307423;33;34644;-81
2021/03/29 10:24:37;;;;;;;1.20;1.10;;;;;;;19.38;29.07;101461.72;4320531;33;35988;-81
2021/03/29 10:28:34;;;;;;;0.80;0.77;;;;;;;19.34;29.68;101458.47;4321307;33;33495;-80
2021/03/29 10:31:23;;;;;;;0.75;0.60;;;;;;;19.46;29.29;101453.66;4309755;33;32262;-81
2021/03/29 10:34:41;;;;;;;0.82;0.20;;;;;;;19.72;28.29;101463.38;4320945;33;33389;-81
2021/03/29 10:38:13;;;;;;;0.93;0.88;;;;;;;19.69;26.93;101455.62;4329875;32;35075;-81
2021/03/29 10:41:24;;;;;;;0.40;0.40;;;;;;;20.29;27.48;101451.75;4311972;33;34049;-81
2021/03/29 10:45:24;;;;;;;0.52;0.45;;;;;;;20.05;26.23;101448.16;4310961;32;34908;-82
2021/03/29 10:48:13;;;;;;;1.02;0.77;;;;;;;20.42;24.02;101441.31;4321345;33;34010;-80
2021/03/29 10:50:43;;;;;;;2.42;0.88;;;;;;;20.06;28.18;101431.78;4324307;33;34303;-81
2021/03/29 10:53:11;;;;;;;1.83;0.52;;;;;;;20.59;25.46;101430.31;4323624;33;33734;-79
2021/03/29 10:55:38;;;;;;;3.22;0.80;;;;;;;20.64;26.08;101430.69;4301784;33;33175;-78
2021/03/29 10:58:16;;;;;;;1.48;0.60;;;;;;;20.58;24.90;101422.38;4327569;33;33548;-79
2021/03/29 11:00:43;;;;;;;;;;;;;;;19.69;26.58;101420.50;4324985;33;36549;-78
2021/03/29 11:03:11;;;;;;;;;;;;;;;19.88;27.63;101424.78;4329681;33;35040;-79
2021/03/29 11:05:38;;;;;;;3.35;1.35;;;;;;;20.31;25.58;101417.31;4323777;33;33666;-79
2021/03/29 11:08:06;;;;;;;0.57;0.57;;;;;;;20.38;27.19;101412.09;4323613;33;33859;-79
2021/03/29 11:10:42;;;;;;;1.00;0.93;;;;;;;20.52;26.29;101413.09;4300226;33;35352;-79
2021/03/29 11:13:23;;;;;;;2.47;1.25;;;;;;;20.53;26.32;101403.94;4311070;33;34617;-78
2021/03/29 11:15:52;;;;;;;0.88;0.88;;;;;;;20.23;27.09;101406.50;4314842;33;33552;-78
2021/03/29 11:18:19;;;;;;;3.60;0.70;;;;;;;20.59;26.32;101403.28;4318752;33;34148;-79
2021/03/29 11:20:47;;;;;;;0.52;0.43;;;;;;;20.40;27.23;101407.34;4321073;33;34544;-78
2021/03/29 11:23:15;;;;;;;1.02;0.65;;;;;;;20.86;25.78;101400.25;4313532;33;34306;-79
2021/03/29 11:25:43;;;;;;;2.08;0.60;;;;;;;20.45;27.74;101405.81;4310189;33;33732;-79
2021/03/29 11:28:10;;;;;;;2.25;2.15;;;;;;;20.53;25.63;101397.72;4301168;33;33409;-79
2021/03/29 11:30:38;;;;;;;2.47;0.75;;;;;;;20.72;24.82;101398.22;4317523;33;34580;-79
2021/03/29 11:33:05;;;;;;;0.60;0.60;;;;;;;21.14;25.47;101395.28;4318573;33;34003;-79
2021/03/29 11:35:33;;;;;;;1.17;1.08;;;;;;;20.63;25.56;101390.28;4315402;33;33173;-80
2021/03/29 11:38:00;;;;;;;0.40;0.40;;;;;;;20.00;26.41;101388.38;4312971;33;34504;-79
2021/03/29 11:40:27;;;;;;;2.37;0.77;;;;;;;20.45;25.92;101377.97;4318115;33;34696;-80
2021/03/29 11:43:00;;;;;;;0.95;0.85;;;;;;;20.59;25.54;101381.66;4307475;33;35941;-81
2021/03/29 11:45:28;;;;;;;1.23;1.12;;;;;;;20.68;25.95;101383.34;4306406;33;32456;-81
2021/03/29 11:47:56;;;;;;;1.15;0.90;;;;;;;20.99;25.88;101369.97;4298697;33;32391;-80
2021/03/29 11:50:23;;;;;;;2.62;0.93;;;;;;;21.02;25.28;101361.47;4324117;33;34141;-80
2021/03/29 11:52:52;;;;;;;2.50;1.00;;;;;;;21.40;25.31;101357.97;4299929;33;35530;-80
2021/03/29 11:55:29;;;;;;;3.80;1.33;;;;;;;20.91;25.96;101354.59;4302841;33;32906;-81
2021/03/29 11:57:57;;;;;;;1.77;1.20;;;;;;;21.15;24.79;101362.63;4297954;33;33603;-81
2021/03/29 12:00:30;;;;;;;3.45;1.77;;;;;;;21.34;25.43;101355.97;4324973;33;34667;-81
2021/03/29 12:05:28;;;;;;;3.47;1.75;;;;;;;22.91;22.93;101349.72;4310621;33;33133;-81
2021/03/29 12:13:24;;;;;;;1.17;0.75;;;;;;;26.11;20.44;101331.44;4299356;33;34932;-81
2021/03/29 12:15:54;;;;;;;0.82;0.60;;;;;;;26.46;18.26;101319.28;4309488;33;32384;-80
2021/03/29 12:19:07;;;;;;;1.20;0.30;;;;;;;26.49;17.67;101308.78;4321350;33;34116;-81
2021/03/29 12:21:28;;;;;;;1.55;0.68;;;;;;;25.23;19.39;101315.22;4308102;33;34740;-81
2021/03/29 12:24:22;;;;;;;0.60;0.60;;;;;;;26.19;19.93;101303.94;4310696;33;34234;-82
2021/03/29 12:26:51;;;;;;;0.88;0.82;;;;;;;24.83;18.63;101315.97;4323927;33;33361;-81
2021/03/29 12:29:35;;;;;;;1.35;0.80;;;;;;;23.92;20.00;101298.84;4300561;33;34748;-81
2021/03/29 12:32:04;;;;;;;3.17;1.95;;;;;;;24.68;20.58;101293.47;4301230;33;34270;-80